sensor_id;sensor_type;location;lat;lon;timestamp;pressure;altitude;pressure_sealevel;temperature;humidity
43814;BME280;29669;55.706;37.656;2023-03-13T00:01:44;98574.78;;;-2.98;nan
43814;BME280;29669;55.706;37.656;2023-03-13T00:04:12;98570.72;;;-3.00;nan
43814;BME280;29669;55.706;37.656;2023-03-13T00:06:40;98581.47;;;-2.97;nan
43814;BME280;29669;55.706;37.656;2023-03-13T00:09:11;98594.66;;;-2.92;nan
43814;BME280;29669;55.706;37.656;2023-03-13T00:11:41;98582.28;;;-2.96;nan
43814;BME280;29669;55.706;37.656;2023-03-13T00:14:09;98593.16;;;-2.94;nan
43814;BME280;29669;55.706;37.656;2023-03-13T00:16:37;98598.16;;;-3.05;nan
43814;BME280;29669;55.706;37.656;2023-03-13T00:19:07;98604.84;;;-3.04;nan
43814;BME280;29669;55.706;37.656;2023-03-13T00:21:36;98606.19;;;-3.11;nan
43814;BME280;29669;55.706;37.656;2023-03-13T00:24:09;98606.84;;;-3.20;nan
43814;BME280;29669;55.706;37.656;2023-03-13T00:26:37;98614.63;;;-3.23;nan
43814;BME280;29669;55.706;37.656;2023-03-13T00:29:05;98601.69;;;-3.31;nan
43814;BME280;29669;55.706;37.656;2023-03-13T00:31:34;98634.16;;;-3.24;nan
43814;BME280;29669;55.706;37.656;2023-03-13T00:34:03;98637.81;;;-3.28;nan
43814;BME280;29669;55.706;37.656;2023-03-13T00:36:33;98635.78;;;-3.35;nan
43814;BME280;29669;55.706;37.656;2023-03-13T00:39:03;98623.28;;;-3.38;nan
43814;BME280;29669;55.706;37.656;2023-03-13T00:41:35;98617.13;;;-3.47;nan
43814;BME280;29669;55.706;37.656;2023-03-13T00:44:04;98634.88;;;-3.47;nan
43814;BME280;29669;55.706;37.656;2023-03-13T00:46:32;98637.22;;;-3.44;nan
43814;BME280;29669;55.706;37.656;2023-03-13T00:49:00;98648.56;;;-3.37;nan
43814;BME280;29669;55.706;37.656;2023-03-13T00:51:29;98644.72;;;-3.30;nan
43814;BME280;29669;55.706;37.656;2023-03-13T00:53:58;98662.78;;;-3.22;nan
43814;BME280;29669;55.706;37.656;2023-03-13T00:56:29;98663.97;;;-3.15;nan
43814;BME280;29669;55.706;37.656;2023-03-13T00:58:58;98674.72;;;-3.11;nan
43814;BME280;29669;55.706;37.656;2023-03-13T01:01:30;98669.88;;;-3.14;nan
43814;BME280;29669;55.706;37.656;2023-03-13T01:04:02;98669.53;;;-3.10;nan
43814;BME280;29669;55.706;37.656;2023-03-13T01:06:33;98673.06;;;-3.12;nan
43814;BME280;29669;55.706;37.656;2023-03-13T01:09:04;98674.72;;;-3.11;nan
43814;BME280;29669;55.706;37.656;2023-03-13T01:11:35;98682.81;;;-3.06;nan
43814;BME280;29669;55.706;37.656;2023-03-13T01:14:08;98678.16;;;-3.12;nan
43814;BME280;29669;55.706;37.656;2023-03-13T01:16:37;98690.94;;;-3.14;nan
43814;BME280;29669;55.706;37.656;2023-03-13T01:19:08;98702.22;;;-3.18;nan
43814;BME280;29669;55.706;37.656;2023-03-13T01:21:40;98703.97;;;-3.31;nan
43814;BME280;29669;55.706;37.656;2023-03-13T01:24:09;98701.72;;;-3.48;nan
43814;BME280;29669;55.706;37.656;2023-03-13T01:26:36;98715.13;;;-3.58;nan
43814;BME280;29669;55.706;37.656;2023-03-13T01:29:04;98724.78;;;-3.63;nan
43814;BME280;29669;55.706;37.656;2023-03-13T01:31:33;98726.28;;;-3.73;nan
43814;BME280;29669;55.706;37.656;2023-03-13T01:34:04;98739.34;;;-3.79;nan
43814;BME280;29669;55.706;37.656;2023-03-13T01:36:33;98732.13;;;-3.86;nan
43814;BME280;29669;55.706;37.656;2023-03-13T01:39:02;98746.63;;;-3.88;nan
43814;BME280;29669;55.706;37.656;2023-03-13T01:41:30;98749.47;;;-3.92;nan
43814;BME280;29669;55.706;37.656;2023-03-13T01:43:59;98771.66;;;-3.96;nan
43814;BME280;29669;55.706;37.656;2023-03-13T01:46:36;98759.88;;;-3.97;nan
43814;BME280;29669;55.706;37.656;2023-03-13T01:49:26;98764.13;;;-3.97;nan
43814;BME280;29669;55.706;37.656;2023-03-13T01:52:25;98776.19;;;-4.01;nan
43814;BME280;29669;55.706;37.656;2023-03-13T01:55:13;98781.34;;;-4.02;nan
43814;BME280;29669;55.706;37.656;2023-03-13T01:57:49;98775.47;;;-4.03;nan
43814;BME280;29669;55.706;37.656;2023-03-13T02:00:26;98778.91;;;-4.04;nan
43814;BME280;29669;55.706;37.656;2023-03-13T02:02:59;98787.13;;;-4.00;nan
43814;BME280;29669;55.706;37.656;2023-03-13T02:05:29;98803.34;;;-4.03;nan
43814;BME280;29669;55.706;37.656;2023-03-13T02:08:06;98800.56;;;-4.12;nan
43814;BME280;29669;55.706;37.656;2023-03-13T02:10:40;98811.63;;;-4.13;nan
43814;BME280;29669;55.706;37.656;2023-03-13T02:13:11;98826.00;;;-4.14;nan
43814;BME280;29669;55.706;37.656;2023-03-13T02:15:41;98815.34;;;-4.19;nan
43814;BME280;29669;55.706;37.656;2023-03-13T02:18:10;98831.44;;;-4.20;nan
43814;BME280;29669;55.706;37.656;2023-03-13T02:20:38;98828.28;;;-4.23;nan
43814;BME280;29669;55.706;37.656;2023-03-13T02:23:21;98834.34;;;-4.26;nan
43814;BME280;29669;55.706;37.656;2023-03-13T02:25:52;98840.22;;;-4.25;nan
43814;BME280;29669;55.706;37.656;2023-03-13T02:28:32;98845.91;;;-4.22;nan
43814;BME280;29669;55.706;37.656;2023-03-13T02:31:05;98850.19;;;-4.22;nan
43814;BME280;29669;55.706;37.656;2023-03-13T02:33:41;98853.44;;;-4.20;nan
43814;BME280;29669;55.706;37.656;2023-03-13T02:36:12;98855.63;;;-4.28;nan
43814;BME280;29669;55.706;37.656;2023-03-13T02:38:55;98876.59;;;-4.26;nan
43814;BME280;29669;55.706;37.656;2023-03-13T02:41:24;98869.19;;;-4.29;nan
43814;BME280;29669;55.706;37.656;2023-03-13T02:43:55;98866.66;;;-4.29;nan
43814;BME280;29669;55.706;37.656;2023-03-13T02:46:23;98873.44;;;-4.30;nan
43814;BME280;29669;55.706;37.656;2023-03-13T02:48:54;98875.06;;;-4.29;nan
43814;BME280;29669;55.706;37.656;2023-03-13T02:51:29;98882.47;;;-4.26;nan
43814;BME280;29669;55.706;37.656;2023-03-13T02:54:06;98884.31;;;-4.28;nan
43814;BME280;29669;55.706;37.656;2023-03-13T02:56:37;98903.84;;;-4.30;nan
43814;BME280;29669;55.706;37.656;2023-03-13T02:59:07;98897.13;;;-4.31;nan
43814;BME280;29669;55.706;37.656;2023-03-13T03:01:38;98891.44;;;-4.34;nan
43814;BME280;29669;55.706;37.656;2023-03-13T03:04:06;98905.47;;;-4.29;nan
43814;BME280;29669;55.706;37.656;2023-03-13T03:06:33;98912.53;;;-4.34;nan
43814;BME280;29669;55.706;37.656;2023-03-13T03:09:04;98900.59;;;-4.32;nan
43814;BME280;29669;55.706;37.656;2023-03-13T03:11:34;98910.88;;;-4.35;nan
43814;BME280;29669;55.706;37.656;2023-03-13T03:14:07;98916.56;;;-4.31;nan
43814;BME280;29669;55.706;37.656;2023-03-13T03:16:41;98914.34;;;-4.36;nan
43814;BME280;29669;55.706;37.656;2023-03-13T03:19:09;98929.25;;;-4.45;nan
43814;BME280;29669;55.706;37.656;2023-03-13T03:21:37;98928.16;;;-4.55;nan
43814;BME280;29669;55.706;37.656;2023-03-13T03:24:05;98930.88;;;-4.58;nan
43814;BME280;29669;55.706;37.656;2023-03-13T03:26:33;98938.56;;;-4.60;nan
43814;BME280;29669;55.706;37.656;2023-03-13T03:29:04;98938.63;;;-4.61;nan
43814;BME280;29669;55.706;37.656;2023-03-13T03:31:31;98939.13;;;-4.55;nan
43814;BME280;29669;55.706;37.656;2023-03-13T03:33:59;98944.72;;;-4.50;nan
43814;BME280;29669;55.706;37.656;2023-03-13T03:36:28;98948.53;;;-4.43;nan
43814;BME280;29669;55.706;37.656;2023-03-13T03:38:59;98953.41;;;-4.40;nan
43814;BME280;29669;55.706;37.656;2023-03-13T03:41:32;98951.59;;;-4.38;nan
43814;BME280;29669;55.706;37.656;2023-03-13T03:44:03;98957.50;;;-4.37;nan
43814;BME280;29669;55.706;37.656;2023-03-13T03:46:43;98953.41;;;-4.40;nan
43814;BME280;29669;55.706;37.656;2023-03-13T03:49:11;98969.13;;;-4.35;nan
43814;BME280;29669;55.706;37.656;2023-03-13T03:51:52;98961.72;;;-4.38;nan
43814;BME280;29669;55.706;37.656;2023-03-13T03:54:29;98966.06;;;-4.40;nan
43814;BME280;29669;55.706;37.656;2023-03-13T03:57:12;98976.75;;;-4.35;nan
43814;BME280;29669;55.706;37.656;2023-03-13T03:59:47;98983.25;;;-4.31;nan
43814;BME280;29669;55.706;37.656;2023-03-13T04:02:15;98987.78;;;-4.36;nan
43814;BME280;29669;55.706;37.656;2023-03-13T04:04:44;98978.72;;;-4.40;nan
43814;BME280;29669;55.706;37.656;2023-03-13T04:07:26;98976.75;;;-4.35;nan
43814;BME280;29669;55.706;37.656;2023-03-13T04:09:54;98984.00;;;-4.29;nan
43814;BME280;29669;55.706;37.656;2023-03-13T04:12:35;99005.16;;;-4.30;nan
43814;BME280;29669;55.706;37.656;2023-03-13T04:15:04;99006.53;;;-4.24;nan
43814;BME280;29669;55.706;37.656;2023-03-13T04:17:32;99003.19;;;-4.25;nan
43814;BME280;29669;55.706;37.656;2023-03-13T04:20:01;99007.31;;;-4.24;nan
43814;BME280;29669;55.706;37.656;2023-03-13T04:22:30;99015.84;;;-4.25;nan
43814;BME280;29669;55.706;37.656;2023-03-13T04:24:59;99016.72;;;-4.26;nan
43814;BME280;29669;55.706;37.656;2023-03-13T04:27:31;99020.91;;;-4.25;nan
43814;BME280;29669;55.706;37.656;2023-03-13T04:30:01;99032.75;;;-4.25;nan
43814;BME280;29669;55.706;37.656;2023-03-13T04:32:49;99025.97;;;-4.25;nan
43814;BME280;29669;55.706;37.656;2023-03-13T04:35:41;99030.13;;;-4.24;nan
43814;BME280;29669;55.706;37.656;2023-03-13T04:38:21;99037.47;;;-4.19;nan
43814;BME280;29669;55.706;37.656;2023-03-13T04:41:12;99039.91;;;-4.18;nan
43814;BME280;29669;55.706;37.656;2023-03-13T04:44:03;99058.38;;;-4.16;nan
43814;BME280;29669;55.706;37.656;2023-03-13T04:46:30;99069.97;;;-4.12;nan
43814;BME280;29669;55.706;37.656;2023-03-13T04:49:29;99074.03;;;-4.09;nan
43814;BME280;29669;55.706;37.656;2023-03-13T04:52:41;99085.34;;;-4.01;nan
43814;BME280;29669;55.706;37.656;2023-03-13T04:55:42;99079.56;;;-4.03;nan
43814;BME280;29669;55.706;37.656;2023-03-13T04:58:30;99070.06;;;-3.99;nan
43814;BME280;29669;55.706;37.656;2023-03-13T05:01:31;99083.19;;;-3.93;nan
43814;BME280;29669;55.706;37.656;2023-03-13T05:04:37;99079.69;;;-3.90;nan
43814;BME280;29669;55.706;37.656;2023-03-13T05:07:34;99101.13;;;-3.82;nan
43814;BME280;29669;55.706;37.656;2023-03-13T05:10:26;99096.97;;;-3.83;nan
43814;BME280;29669;55.706;37.656;2023-03-13T05:13:19;99097.59;;;-3.79;nan
43814;BME280;29669;55.706;37.656;2023-03-13T05:16:05;99111.00;;;-3.77;nan
43814;BME280;29669;55.706;37.656;2023-03-13T05:19:13;99105.13;;;-3.77;nan
43814;BME280;29669;55.706;37.656;2023-03-13T05:22:00;99126.31;;;-3.64;nan
43814;BME280;29669;55.706;37.656;2023-03-13T05:24:47;99124.31;;;-3.59;nan
43814;BME280;29669;55.706;37.656;2023-03-13T05:27:35;99128.88;;;-3.50;nan
43814;BME280;29669;55.706;37.656;2023-03-13T05:30:26;99134.22;;;-3.41;nan
43814;BME280;29669;55.706;37.656;2023-03-13T05:33:05;99135.09;;;-3.28;nan
43814;BME280;29669;55.706;37.656;2023-03-13T05:35:48;99132.28;;;-3.23;nan
43814;BME280;29669;55.706;37.656;2023-03-13T05:38:44;99141.06;;;-3.15;nan
43814;BME280;29669;55.706;37.656;2023-03-13T05:41:33;99133.34;;;-3.13;nan
43814;BME280;29669;55.706;37.656;2023-03-13T05:44:28;99147.41;;;-3.08;nan
43814;BME280;29669;55.706;37.656;2023-03-13T05:47:23;99152.94;;;-3.01;nan
43814;BME280;29669;55.706;37.656;2023-03-13T05:50:10;99151.91;;;-2.99;nan
43814;BME280;29669;55.706;37.656;2023-03-13T05:53:11;99159.06;;;-2.91;nan
43814;BME280;29669;55.706;37.656;2023-03-13T05:55:50;99152.16;;;-2.89;nan
43814;BME280;29669;55.706;37.656;2023-03-13T05:58:38;99157.31;;;-2.76;nan
43814;BME280;29669;55.706;37.656;2023-03-13T06:01:26;99152.50;;;-2.67;nan
43814;BME280;29669;55.706;37.656;2023-03-13T06:04:05;99161.34;;;-2.60;nan
43814;BME280;29669;55.706;37.656;2023-03-13T06:06:39;99162.91;;;-2.57;nan
43814;BME280;29669;55.706;37.656;2023-03-13T06:09:08;99163.50;;;-2.54;nan
43814;BME280;29669;55.706;37.656;2023-03-13T06:11:39;99174.19;;;-2.49;nan
43814;BME280;29669;55.706;37.656;2023-03-13T06:14:07;99176.25;;;-2.41;nan
43814;BME280;29669;55.706;37.656;2023-03-13T06:16:55;99185.41;;;-2.39;nan
43814;BME280;29669;55.706;37.656;2023-03-13T06:19:25;99181.56;;;-2.32;nan
43814;BME280;29669;55.706;37.656;2023-03-13T06:21:53;99182.19;;;-2.28;nan
43814;BME280;29669;55.706;37.656;2023-03-13T06:24:21;99187.72;;;-2.22;nan
43814;BME280;29669;55.706;37.656;2023-03-13T06:26:49;99187.59;;;-2.20;nan
43814;BME280;29669;55.706;37.656;2023-03-13T06:29:17;99194.53;;;-2.10;nan
43814;BME280;29669;55.706;37.656;2023-03-13T06:31:45;99199.25;;;-2.04;nan
43814;BME280;29669;55.706;37.656;2023-03-13T06:34:13;99200.28;;;-1.94;nan
43814;BME280;29669;55.706;37.656;2023-03-13T06:36:41;99223.28;;;-1.82;nan
43814;BME280;29669;55.706;37.656;2023-03-13T06:39:10;99223.81;;;-1.77;nan
43814;BME280;29669;55.706;37.656;2023-03-13T06:41:38;99211.31;;;-1.80;nan
43814;BME280;29669;55.706;37.656;2023-03-13T06:44:06;99216.00;;;-1.74;nan
43814;BME280;29669;55.706;37.656;2023-03-13T06:46:34;99215.38;;;-1.65;nan
43814;BME280;29669;55.706;37.656;2023-03-13T06:49:01;99216.50;;;-1.57;nan
43814;BME280;29669;55.706;37.656;2023-03-13T06:51:32;99228.72;;;-1.49;nan
43814;BME280;29669;55.706;37.656;2023-03-13T06:54:03;99220.47;;;-1.53;nan
43814;BME280;29669;55.706;37.656;2023-03-13T06:56:30;99226.28;;;-1.51;nan
43814;BME280;29669;55.706;37.656;2023-03-13T06:58:58;99218.38;;;-1.46;nan
43814;BME280;29669;55.706;37.656;2023-03-13T07:01:26;99218.97;;;-1.43;nan
43814;BME280;29669;55.706;37.656;2023-03-13T07:03:54;99229.97;;;-1.30;nan
43814;BME280;29669;55.706;37.656;2023-03-13T07:06:22;99234.03;;;-1.15;nan
43814;BME280;29669;55.706;37.656;2023-03-13T07:08:50;99239.22;;;-1.04;nan
43814;BME280;29669;55.706;37.656;2023-03-13T07:11:17;99241.34;;;-0.85;nan
43814;BME280;29669;55.706;37.656;2023-03-13T07:13:45;99248.22;;;-0.62;nan
43814;BME280;29669;55.706;37.656;2023-03-13T07:16:13;99244.25;;;-0.30;nan
43814;BME280;29669;55.706;37.656;2023-03-13T07:18:41;99246.31;;;-0.11;nan
43814;BME280;29669;55.706;37.656;2023-03-13T07:21:11;99251.00;;;-0.05;nan
43814;BME280;29669;55.706;37.656;2023-03-13T07:23:39;99264.03;;;0.03;nan
43814;BME280;29669;55.706;37.656;2023-03-13T07:26:11;99265.97;;;0.23;nan
43814;BME280;29669;55.706;37.656;2023-03-13T07:28:39;99267.09;;;0.43;nan
43814;BME280;29669;55.706;37.656;2023-03-13T07:31:14;99267.81;;;0.56;nan
43814;BME280;29669;55.706;37.656;2023-03-13T07:33:43;99277.59;;;0.73;nan
43814;BME280;29669;55.706;37.656;2023-03-13T07:36:14;99286.81;;;1.09;nan
43814;BME280;29669;55.706;37.656;2023-03-13T07:38:41;99291.13;;;1.41;nan
43814;BME280;29669;55.706;37.656;2023-03-13T07:41:12;99283.22;;;1.33;nan
43814;BME280;29669;55.706;37.656;2023-03-13T07:43:40;99302.16;;;1.20;nan
43814;BME280;29669;55.706;37.656;2023-03-13T07:46:11;99303.69;;;1.11;nan
43814;BME280;29669;55.706;37.656;2023-03-13T07:48:40;99304.97;;;1.06;nan
43814;BME280;29669;55.706;37.656;2023-03-13T07:53:42;99313.22;;;1.09;nan
43814;BME280;29669;55.706;37.656;2023-03-13T07:56:12;99311.34;;;1.11;nan
43814;BME280;29669;55.706;37.656;2023-03-13T07:58:41;99335.06;;;1.13;nan
43814;BME280;29669;55.706;37.656;2023-03-13T08:01:11;99322.72;;;1.18;nan
43814;BME280;29669;55.706;37.656;2023-03-13T08:03:39;99317.38;;;1.10;nan
43814;BME280;29669;55.706;37.656;2023-03-13T08:06:13;99320.63;;;1.12;nan
43814;BME280;29669;55.706;37.656;2023-03-13T08:08:41;99315.63;;;1.11;nan
43814;BME280;29669;55.706;37.656;2023-03-13T08:11:15;99326.13;;;1.19;nan
43814;BME280;29669;55.706;37.656;2023-03-13T08:13:44;99326.56;;;1.24;nan
43814;BME280;29669;55.706;37.656;2023-03-13T08:16:14;99322.41;;;1.23;nan
43814;BME280;29669;55.706;37.656;2023-03-13T08:18:44;99334.59;;;1.41;nan
43814;BME280;29669;55.706;37.656;2023-03-13T08:21:21;99334.72;;;1.51;nan
43814;BME280;29669;55.706;37.656;2023-03-13T08:23:54;99324.84;;;1.46;nan
43814;BME280;29669;55.706;37.656;2023-03-13T08:26:27;99329.94;;;1.46;nan
43814;BME280;29669;55.706;37.656;2023-03-13T08:29:02;99324.59;;;1.38;nan
43814;BME280;29669;55.706;37.656;2023-03-13T08:31:43;99334.03;;;1.38;nan
43814;BME280;29669;55.706;37.656;2023-03-13T08:34:12;99333.22;;;1.26;nan
43814;BME280;29669;55.706;37.656;2023-03-13T08:36:40;99332.72;;;1.21;nan
43814;BME280;29669;55.706;37.656;2023-03-13T08:39:14;99336.09;;;1.11;nan
43814;BME280;29669;55.706;37.656;2023-03-13T08:41:44;99334.06;;;0.81;nan
43814;BME280;29669;55.706;37.656;2023-03-13T08:44:14;99341.75;;;0.57;nan
43814;BME280;29669;55.706;37.656;2023-03-13T08:46:42;99356.59;;;0.52;nan
43814;BME280;29669;55.706;37.656;2023-03-13T08:49:11;99348.94;;;0.52;nan
43814;BME280;29669;55.706;37.656;2023-03-13T08:51:39;99349.28;;;0.59;nan
43814;BME280;29669;55.706;37.656;2023-03-13T08:54:07;99361.06;;;0.72;nan
43814;BME280;29669;55.706;37.656;2023-03-13T08:56:35;99370.28;;;0.86;nan
43814;BME280;29669;55.706;37.656;2023-03-13T08:59:04;99354.78;;;1.11;nan
43814;BME280;29669;55.706;37.656;2023-03-13T09:01:33;99368.09;;;1.49;nan
43814;BME280;29669;55.706;37.656;2023-03-13T09:04:03;99376.47;;;1.62;nan
43814;BME280;29669;55.706;37.656;2023-03-13T09:06:36;99372.72;;;1.55;nan
43814;BME280;29669;55.706;37.656;2023-03-13T09:09:05;99379.22;;;1.70;nan
43814;BME280;29669;55.706;37.656;2023-03-13T09:11:35;99394.72;;;1.58;nan
43814;BME280;29669;55.706;37.656;2023-03-13T09:14:03;99384.00;;;1.42;nan
43814;BME280;29669;55.706;37.656;2023-03-13T09:16:31;99391.75;;;1.29;nan
43814;BME280;29669;55.706;37.656;2023-03-13T09:19:00;99385.03;;;1.39;nan
43814;BME280;29669;55.706;37.656;2023-03-13T09:21:32;99418.19;;;1.63;nan
43814;BME280;29669;55.706;37.656;2023-03-13T09:24:00;99402.16;;;1.83;nan
43814;BME280;29669;55.706;37.656;2023-03-13T09:26:29;99411.81;;;2.02;nan
43814;BME280;29669;55.706;37.656;2023-03-13T09:28:57;99403.09;;;2.04;nan
43814;BME280;29669;55.706;37.656;2023-03-13T09:31:28;99415.50;;;2.20;nan
43814;BME280;29669;55.706;37.656;2023-03-13T09:33:56;99404.31;;;2.32;nan
43814;BME280;29669;55.706;37.656;2023-03-13T09:36:25;99403.59;;;2.41;nan
43814;BME280;29669;55.706;37.656;2023-03-13T09:38:56;99412.41;;;2.59;nan
43814;BME280;29669;55.706;37.656;2023-03-13T09:41:46;99412.47;;;2.68;nan
43814;BME280;29669;55.706;37.656;2023-03-13T09:44:26;99413.06;;;2.72;nan
43814;BME280;29669;55.706;37.656;2023-03-13T09:47:03;99404.47;;;2.62;nan
43814;BME280;29669;55.706;37.656;2023-03-13T09:49:43;99415.19;;;2.56;nan
43814;BME280;29669;55.706;37.656;2023-03-13T09:52:19;99417.56;;;2.37;nan
43814;BME280;29669;55.706;37.656;2023-03-13T09:55:05;99424.03;;;2.52;nan
43814;BME280;29669;55.706;37.656;2023-03-13T09:57:58;99429.72;;;2.66;nan
43814;BME280;29669;55.706;37.656;2023-03-13T10:00:43;99433.59;;;2.93;nan
43814;BME280;29669;55.706;37.656;2023-03-13T10:06:27;99430.09;;;3.14;nan
43814;BME280;29669;55.706;37.656;2023-03-13T10:08:47;99435.81;;;3.18;nan
43814;BME280;29669;55.706;37.656;2023-03-13T10:11:27;99440.59;;;3.11;nan
43814;BME280;29669;55.706;37.656;2023-03-13T10:14:13;99446.22;;;2.73;nan
43814;BME280;29669;55.706;37.656;2023-03-13T10:19:36;99453.69;;;2.23;nan
43814;BME280;29669;55.706;37.656;2023-03-13T10:22:17;99459.50;;;2.03;nan
43814;BME280;29669;55.706;37.656;2023-03-13T10:25:08;99459.63;;;1.90;nan
43814;BME280;29669;55.706;37.656;2023-03-13T10:27:49;99456.69;;;1.72;nan
43814;BME280;29669;55.706;37.656;2023-03-13T10:30:29;99460.88;;;1.62;nan
43814;BME280;29669;55.706;37.656;2023-03-13T10:33:21;99463.63;;;1.48;nan
43814;BME280;29669;55.706;37.656;2023-03-13T10:36:09;99480.50;;;1.51;nan
43814;BME280;29669;55.706;37.656;2023-03-13T10:38:52;99477.84;;;1.85;nan
43814;BME280;29669;55.706;37.656;2023-03-13T10:41:35;99473.31;;;2.33;nan
43814;BME280;29669;55.706;37.656;2023-03-13T10:44:11;99471.94;;;2.83;nan
43814;BME280;29669;55.706;37.656;2023-03-13T10:46:44;99500.28;;;3.13;nan
43814;BME280;29669;55.706;37.656;2023-03-13T10:49:20;99493.03;;;3.39;nan
43814;BME280;29669;55.706;37.656;2023-03-13T10:52:03;99488.72;;;3.60;nan
43814;BME280;29669;55.706;37.656;2023-03-13T10:54:33;99488.03;;;3.58;nan
43814;BME280;29669;55.706;37.656;2023-03-13T10:59:49;99499.19;;;2.84;nan
43814;BME280;29669;55.706;37.656;2023-03-13T11:02:34;99519.31;;;2.46;nan
43814;BME280;29669;55.706;37.656;2023-03-13T11:07:51;99515.59;;;2.17;nan
43814;BME280;29669;55.706;37.656;2023-03-13T11:10:26;99507.44;;;2.12;nan
43814;BME280;29669;55.706;37.656;2023-03-13T11:12:59;99534.84;;;1.87;nan
43814;BME280;29669;55.706;37.656;2023-03-13T11:15:50;99532.94;;;1.56;nan
43814;BME280;29669;55.706;37.656;2023-03-13T11:18:31;99530.34;;;1.45;nan
43814;BME280;29669;55.706;37.656;2023-03-13T11:21:16;99525.97;;;1.58;nan
43814;BME280;29669;55.706;37.656;2023-03-13T11:24:12;99540.66;;;1.78;nan
43814;BME280;29669;55.706;37.656;2023-03-13T11:26:51;99535.06;;;1.73;nan
43814;BME280;29669;55.706;37.656;2023-03-13T11:32:22;99551.59;;;1.80;nan
43814;BME280;29669;55.706;37.656;2023-03-13T11:35:00;99555.31;;;1.76;nan
43814;BME280;29669;55.706;37.656;2023-03-13T11:37:32;99559.16;;;1.82;nan
43814;BME280;29669;55.706;37.656;2023-03-13T11:43:04;99564.84;;;1.85;nan
43814;BME280;29669;55.706;37.656;2023-03-13T11:52:06;99563.16;;;1.97;nan
43814;BME280;29669;55.706;37.656;2023-03-13T11:58:10;99571.63;;;1.86;nan
43814;BME280;29669;55.706;37.656;2023-03-13T12:00:58;99573.78;;;1.69;nan
43814;BME280;29669;55.706;37.656;2023-03-13T12:03:49;99592.59;;;1.57;nan
43814;BME280;29669;55.706;37.656;2023-03-13T12:09:33;99605.19;;;2.06;nan
43814;BME280;29669;55.706;37.656;2023-03-13T12:12:40;99602.44;;;2.31;nan
43814;BME280;29669;55.706;37.656;2023-03-13T12:15:36;99596.03;;;2.58;nan
43814;BME280;29669;55.706;37.656;2023-03-13T12:18:35;99593.44;;;2.80;nan
43814;BME280;29669;55.706;37.656;2023-03-13T12:21:21;99595.69;;;2.74;nan
43814;BME280;29669;55.706;37.656;2023-03-13T12:24:12;99592.75;;;2.90;nan
43814;BME280;29669;55.706;37.656;2023-03-13T12:26:59;99591.66;;;3.03;nan
43814;BME280;29669;55.706;37.656;2023-03-13T12:32:38;99590.47;;;3.18;nan
43814;BME280;29669;55.706;37.656;2023-03-13T12:35:20;99593.63;;;3.53;nan
43814;BME280;29669;55.706;37.656;2023-03-13T12:38:08;99594.97;;;3.68;nan
43814;BME280;29669;55.706;37.656;2023-03-13T12:43:43;99607.44;;;4.35;nan
43814;BME280;29669;55.706;37.656;2023-03-13T13:01:03;99627.22;;;2.63;nan
43814;BME280;29669;55.706;37.656;2023-03-13T13:06:13;99621.75;;;2.35;nan
43814;BME280;29669;55.706;37.656;2023-03-13T13:09:23;99632.47;;;2.29;nan
43814;BME280;29669;55.706;37.656;2023-03-13T13:11:50;99624.66;;;1.84;nan
43814;BME280;29669;55.706;37.656;2023-03-13T13:30:30;99649.19;;;2.22;nan
43814;BME280;29669;55.706;37.656;2023-03-13T13:35:45;99667.75;;;3.67;nan
43814;BME280;29669;55.706;37.656;2023-03-13T13:43:46;99657.88;;;2.65;nan
43814;BME280;29669;55.706;37.656;2023-03-13T13:46:26;99670.44;;;2.57;nan
43814;BME280;29669;55.706;37.656;2023-03-13T13:51:39;99671.34;;;1.99;nan
43814;BME280;29669;55.706;37.656;2023-03-13T13:57:19;99666.59;;;3.71;nan
43814;BME280;29669;55.706;37.656;2023-03-13T14:02:33;99648.16;;;4.39;nan
43814;BME280;29669;55.706;37.656;2023-03-13T14:05:07;99677.50;;;3.84;nan
43814;BME280;29669;55.706;37.656;2023-03-13T14:08:02;99664.38;;;3.13;nan
43814;BME280;29669;55.706;37.656;2023-03-13T14:10:39;99676.50;;;2.56;nan
43814;BME280;29669;55.706;37.656;2023-03-13T14:13:19;99686.09;;;2.19;nan
43814;BME280;29669;55.706;37.656;2023-03-13T14:15:48;99689.56;;;1.83;nan
43814;BME280;29669;55.706;37.656;2023-03-13T14:18:21;99688.53;;;1.62;nan
43814;BME280;29669;55.706;37.656;2023-03-13T14:28:57;99708.22;;;1.13;nan
43814;BME280;29669;55.706;37.656;2023-03-13T14:31:27;99707.81;;;1.07;nan
43814;BME280;29669;55.706;37.656;2023-03-13T14:33:59;99696.97;;;1.03;nan
43814;BME280;29669;55.706;37.656;2023-03-13T14:36:28;99717.72;;;0.98;nan
43814;BME280;29669;55.706;37.656;2023-03-13T14:39:00;99704.66;;;0.78;nan
43814;BME280;29669;55.706;37.656;2023-03-13T14:41:43;99705.78;;;0.74;nan
43814;BME280;29669;55.706;37.656;2023-03-13T14:44:28;99712.94;;;0.69;nan
43814;BME280;29669;55.706;37.656;2023-03-13T14:46:59;99724.28;;;0.65;nan
43814;BME280;29669;55.706;37.656;2023-03-13T14:49:31;99724.81;;;0.70;nan
43814;BME280;29669;55.706;37.656;2023-03-13T14:52:05;99714.38;;;0.60;nan
43814;BME280;29669;55.706;37.656;2023-03-13T14:54:49;99713.13;;;0.53;nan
43814;BME280;29669;55.706;37.656;2023-03-13T14:57:19;99722.22;;;0.57;nan
43814;BME280;29669;55.706;37.656;2023-03-13T14:59:53;99728.78;;;0.61;nan
43814;BME280;29669;55.706;37.656;2023-03-13T15:02:29;99729.78;;;0.59;nan
43814;BME280;29669;55.706;37.656;2023-03-13T15:05:00;99727.56;;;0.54;nan
43814;BME280;29669;55.706;37.656;2023-03-13T15:07:46;99733.34;;;0.44;nan
43814;BME280;29669;55.706;37.656;2023-03-13T15:12:49;99724.72;;;0.07;nan
43814;BME280;29669;55.706;37.656;2023-03-13T15:15:17;99733.03;;;-0.04;nan
43814;BME280;29669;55.706;37.656;2023-03-13T15:17:45;99740.88;;;-0.07;nan
43814;BME280;29669;55.706;37.656;2023-03-13T15:20:16;99737.09;;;-0.14;nan
43814;BME280;29669;55.706;37.656;2023-03-13T15:22:45;99749.97;;;-0.29;nan
43814;BME280;29669;55.706;37.656;2023-03-13T15:25:22;99743.44;;;-0.47;nan
43814;BME280;29669;55.706;37.656;2023-03-13T15:27:50;99751.97;;;-0.61;nan
43814;BME280;29669;55.706;37.656;2023-03-13T15:30:20;99752.31;;;-0.67;nan
43814;BME280;29669;55.706;37.656;2023-03-13T15:32:51;99754.41;;;-0.73;nan
43814;BME280;29669;55.706;37.656;2023-03-13T15:35:28;99748.97;;;-0.81;nan
43814;BME280;29669;55.706;37.656;2023-03-13T15:37:58;99744.59;;;-0.93;nan